Time;durP1;ratioP1;P1;durP2;ratioP2;P2;SDS_P1;SDS_P2;PMS_P1;PMS_P2;Temp;Humidity;BMP_temperature;BMP_pressure;BME280_temperature;BME280_humidity;BME280_pressure;Samples;Min_cycle;Max_cycle;Signal;HPM_P1;HPM_P2
2023/03/10 00:01:30;;;;;;;;;;;;;;;12.71;51.41;98937.69;3108812;28;19925;-64
2023/03/10 00:03:02;;;;;;;;;;;;;;;12.73;51.34;98938.44;3109406;28;19930;-66
2023/03/10 00:04:33;;;;;;;;;;;;;;;12.74;51.57;98934.03;3096585;28;20189;-63
2023/03/10 00:06:04;;;;;;;;;;;;;;;12.75;51.47;98935.72;3108295;28;20024;-64
2023/03/10 00:07:35;;;;;;;;;;;;;;;12.76;51.36;98942.63;3108638;28;20340;-64
2023/03/10 00:09:08;;;;;;;;;;;;;;;12.76;51.50;98947.84;3109069;28;19988;-64
2023/03/10 00:10:39;;;;;;;;;;;;;;;12.74;51.33;98947.09;3108789;28;20291;-64
2023/03/10 00:12:11;;;;;;;;;;;;;;;12.72;51.65;98951.59;3109138;28;20351;-64
2023/03/10 00:13:45;;;;;;;;;;;;;;;12.68;51.88;98952.75;3112812;28;19925;-64
2023/03/10 00:15:15;;;;;;;;;;;;;;;12.62;51.98;98956.59;3103439;28;20306;-64
2023/03/10 00:16:47;;;;;;;;;;;;;;;12.58;52.19;98952.53;3109021;28;19929;-64
2023/03/10 00:18:19;;;;;;;;;;;;;;;12.52;52.62;98945.09;3108801;28;19925;-65
2023/03/10 00:19:50;;;;;;;;;;;;;;;12.49;52.59;98937.47;3109112;28;19987;-65
2023/03/10 00:21:23;;;;;;;;;;;;;;;12.49;52.69;98930.47;3108568;28;19933;-65
2023/03/10 00:22:54;;;;;;;;;;;;;;;12.51;52.63;98925.13;3109273;28;19926;-64
2023/03/10 00:24:25;;;;;;;;;;;;;;;12.51;52.61;98928.59;3108763;28;19932;-64
2023/03/10 00:25:57;;;;;;;;;;;;;;;12.45;52.63;98923.78;3107770;28;19986;-65
2023/03/10 00:27:29;;;;;;;;;;;;;;;12.39;53.35;98933.78;3106122;28;19930;-65
2023/03/10 00:29:02;;;;;;;;;;;;;;;12.36;53.27;98928.78;3099947;28;19925;-65
2023/03/10 00:30:34;;;;;;;;;;;;;;;12.34;53.21;98934.09;3108559;28;20383;-64
2023/03/10 00:32:06;;;;;;;;;;;;;;;12.34;53.53;98928.88;3108699;28;19973;-64
2023/03/10 00:33:37;;;;;;;;;;;;;;;12.34;53.12;98934.09;3108766;28;19964;-64
2023/03/10 00:35:09;;;;;;;;;;;;;;;12.35;53.02;98932.31;3108867;28;20071;-64
2023/03/10 00:36:41;;;;;;;;;;;;;;;12.32;53.20;98938.59;3108148;28;19948;-64
2023/03/10 00:38:12;;;;;;;;;;;;;;;12.28;53.30;98937.97;3108487;28;20240;-64
2023/03/10 00:39:44;;;;;;;;;;;;;;;12.25;53.37;98932.09;3108444;28;20259;-64
2023/03/10 00:41:17;;;;;;;;;;;;;;;12.26;53.42;98926.78;3109066;28;19976;-64
2023/03/10 00:42:49;;;;;;;;;;;;;;;12.26;53.28;98929.38;3108843;28;20318;-65
2023/03/10 00:44:22;;;;;;;;;;;;;;;12.27;53.30;98935.44;3108539;28;19988;-64
2023/03/10 00:45:53;;;;;;;;;;;;;;;12.26;53.13;98937.22;3108581;28;19929;-64
2023/03/10 00:47:25;;;;;;;;;;;;;;;12.24;53.38;98944.28;3108621;28;19977;-64
2023/03/10 00:48:56;;;;;;;;;;;;;;;12.24;53.19;98940.84;3108690;28;19933;-64
2023/03/10 00:50:28;;;;;;;;;;;;;;;12.24;53.42;98938.25;3108368;28;19930;-64
2023/03/10 00:51:59;;;;;;;;;;;;;;;12.23;53.02;98947.03;3108478;28;19958;-64
2023/03/10 00:53:30;;;;;;;;;;;;;;;12.23;53.36;98947.03;3107906;28;19929;-64
2023/03/10 00:55:02;;;;;;;;;;;;;;;12.20;53.15;98942.84;3108859;28;19964;-65
2023/03/10 00:56:33;;;;;;;;;;;;;;;12.21;53.12;98938.44;3108507;28;20318;-64
2023/03/10 00:58:05;;;;;;;;;;;;;;;12.20;53.33;98939.41;3108418;28;19925;-65
2023/03/10 00:59:38;;;;;;;;;;;;;;;12.21;52.99;98941.06;3108321;28;20011;-65
2023/03/10 01:01:12;;;;;;;;;;;;;;;12.20;53.26;98931.56;3108457;28;19925;-65
2023/03/10 01:02:44;;;;;;;;;;;;;;;12.20;53.07;98934.19;3108304;28;19925;-65
2023/03/10 01:04:17;;;;;;;;;;;;;;;12.19;52.98;98937.72;3108709;28;19933;-64
2023/03/10 01:05:48;;;;;;;;;;;;;;;12.18;53.08;98933.44;3108375;28;19980;-65
2023/03/10 01:07:19;;;;;;;;;;;;;;;12.17;52.91;98930.00;3108134;28;19925;-65
2023/03/10 01:08:50;;;;;;;;;;;;;;;12.16;53.08;98937.94;3108589;28;20316;-66
2023/03/10 01:10:22;;;;;;;;;;;;;;;12.15;52.88;98936.25;3108521;28;20008;-65
2023/03/10 01:11:53;;;;;;;;;;;;;;;12.15;52.96;98934.47;3107913;28;19930;-65
2023/03/10 01:13:24;;;;;;;;;;;;;;;12.14;53.15;98935.41;3109769;28;19984;-66
2023/03/10 01:14:57;;;;;;;;;;;;;;;12.13;52.93;98938.13;3113719;28;19979;-66
2023/03/10 01:16:28;;;;;;;;;;;;;;;12.12;52.88;98939.88;3108090;28;19933;-66
2023/03/10 01:18:02;;;;;;;;;;;;;;;12.11;53.08;98937.38;3108249;28;19929;-66
2023/03/10 01:19:34;;;;;;;;;;;;;;;12.08;53.16;98938.41;3107873;28;20595;-66
2023/03/10 01:21:06;;;;;;;;;;;;;;;12.05;53.08;98934.22;3108569;28;19956;-66
2023/03/10 01:22:37;;;;;;;;;;;;;;;12.04;53.35;98932.56;3107975;28;19952;-66
2023/03/10 01:24:13;;;;;;;;;;;;;;;12.00;53.38;98927.63;3108336;28;20312;-65
2023/03/10 01:25:45;;;;;;;;;;;;;;;11.97;53.39;98936.50;3095803;28;20009;-65
2023/03/10 01:27:17;;;;;;;;;;;;;;;11.96;53.46;98934.84;3107337;28;19929;-65
2023/03/10 01:28:49;;;;;;;;;;;;;;;11.96;53.40;98931.41;3107056;28;19925;-65
2023/03/10 01:30:22;;;;;;;;;;;;;;;11.94;53.29;98928.88;3108057;28;19933;-65
2023/03/10 01:31:53;;;;;;;;;;;;;;;11.94;53.51;98928.03;3107562;28;19929;-65
2023/03/10 01:33:25;;;;;;;;;;;;;;;11.92;53.73;98935.13;3108434;28;20326;-64
2023/03/10 01:34:56;;;;;;;;;;;;;;;11.88;53.91;98928.44;3108397;28;20295;-64
2023/03/10 01:36:28;;;;;;;;;;;;;;;11.84;53.65;98925.16;3107709;28;19945;-64
2023/03/10 01:38:00;;;;;;;;;;;;;;;11.82;53.73;98929.63;3108128;28;19948;-64
2023/03/10 01:39:31;;;;;;;;;;;;;;;11.80;54.08;98927.13;3107528;28;19929;-65
2023/03/10 01:41:02;;;;;;;;;;;;;;;11.78;53.84;98923.78;3108362;28;20322;-64
2023/03/10 01:42:33;;;;;;;;;;;;;;;11.76;53.95;98924.81;3108210;28;19927;-65
2023/03/10 01:44:12;;;;;;;;;;;;;;;11.74;54.00;98924.94;3108167;28;19925;-65
2023/03/10 01:46:01;;;;;;;;;;;;;;;11.70;54.50;98917.38;3108309;28;19925;-65
2023/03/10 01:47:34;;;;;;;;;;;;;;;11.69;54.34;98915.72;3108057;28;19949;-65
2023/03/10 01:49:06;;;;;;;;;;;;;;;11.69;54.23;98916.53;3108264;28;19925;-65
2023/03/10 01:50:38;;;;;;;;;;;;;;;11.68;54.21;98919.25;3107982;28;19948;-65
2023/03/10 01:52:12;;;;;;;;;;;;;;;11.68;54.42;98916.63;3107986;28;19925;-65
2023/03/10 01:53:43;;;;;;;;;;;;;;;11.66;54.37;98921.13;3108232;28;19925;-65
2023/03/10 01:55:16;;;;;;;;;;;;;;;11.63;54.06;98913.50;3108176;28;20019;-65
2023/03/10 01:56:50;;;;;;;;;;;;;;;11.51;54.53;98900.31;3108210;28;19991;-65
2023/03/10 01:58:23;;;;;;;;;;;;;;;11.57;54.44;98920.78;3108107;28;19965;-65
2023/03/10 01:59:55;;;;;;;;;;;;;;;11.54;54.60;98918.34;3108046;28;19926;-65
2023/03/10 02:01:26;;;;;;;;;;;;;;;11.51;54.51;98918.56;3107635;28;19933;-65
2023/03/10 02:03:02;;;;;;;;;;;;;;;11.47;54.84;98913.63;3105001;28;20005;-64
2023/03/10 02:04:36;;;;;;;;;;;;;;;11.44;54.75;98919.03;3097756;28;19932;-64
2023/03/10 02:06:09;;;;;;;;;;;;;;;11.42;54.57;98919.13;3098286;28;19930;-65
2023/03/10 02:07:43;;;;;;;;;;;;;;;11.42;54.85;98916.53;3109836;28;19925;-65
2023/03/10 02:09:14;;;;;;;;;;;;;;;11.40;54.87;98918.38;3110697;28;19925;-65
2023/03/10 02:10:46;;;;;;;;;;;;;;;11.32;55.01;98910.19;3110543;28;20057;-64
2023/03/10 02:12:18;;;;;;;;;;;;;;;11.30;55.22;98909.47;3110076;28;19929;-65
2023/03/10 02:13:48;;;;;;;;;;;;;;;11.27;55.38;98922.66;3115135;28;20011;-65
2023/03/10 02:15:20;;;;;;;;;;;;;;;11.26;55.39;98913.19;3114304;28;19936;-65
2023/03/10 02:16:51;;;;;;;;;;;;;;;11.21;55.64;98917.84;3110541;28;20299;-65
2023/03/10 02:18:24;;;;;;;;;;;;;;;11.19;55.64;98914.50;3110135;28;19944;-65
2023/03/10 02:20:05;;;;;;;;;;;;;;;11.19;55.48;98924.94;3110072;28;20326;-65
2023/03/10 02:21:42;;;;;;;;;;;;;;;11.20;55.42;98921.38;3110240;28;19926;-65
2023/03/10 02:23:15;;;;;;;;;;;;;;;11.21;55.19;98928.25;3110252;28;20021;-65
2023/03/10 02:24:51;;;;;;;;;;;;;;;11.20;55.37;98924.00;3109903;28;20205;-64
2023/03/10 02:26:25;;;;;;;;;;;;;;;11.21;55.19;98933.47;3110253;28;19937;-65
2023/03/10 02:27:58;;;;;;;;;;;;;;;11.21;55.56;98933.47;3108309;28;19929;-65
2023/03/10 02:29:32;;;;;;;;;;;;;;;11.19;55.46;98925.75;3101828;28;19929;-65
2023/03/10 02:31:03;;;;;;;;;;;;;;;11.19;55.29;98933.59;3110260;28;20402;-65
2023/03/10 02:32:36;;;;;;;;;;;;;;;11.19;55.47;98928.38;3109714;28;19949;-64
2023/03/10 02:34:08;;;;;;;;;;;;;;;11.19;55.17;98927.53;3110250;28;19929;-64
2023/03/10 02:35:40;;;;;;;;;;;;;;;11.17;55.20;98927.63;3109713;28;20417;-64
2023/03/10 02:37:18;;;;;;;;;;;;;;;11.15;55.24;98925.13;3110030;28;20382;-64
2023/03/10 02:38:50;;;;;;;;;;;;;;;11.15;55.25;98925.13;3110300;28;19926;-64
2023/03/10 02:40:24;;;;;;;;;;;;;;;11.14;55.57;98928.63;3110208;28;19979;-65
2023/03/10 02:41:55;;;;;;;;;;;;;;;11.11;55.51;98928.84;3098004;28;19925;-65
2023/03/10 02:43:29;;;;;;;;;;;;;;;11.08;56.02;98926.41;3109530;28;19929;-65
2023/03/10 02:45:02;;;;;;;;;;;;;;;11.07;56.09;98929.97;3110334;28;19995;-65
2023/03/10 02:46:33;;;;;;;;;;;;;;;11.08;56.01;98929.03;3110001;28;19925;-65
2023/03/10 02:48:04;;;;;;;;;;;;;;;11.07;55.94;98940.38;3109762;28;19936;-65
2023/03/10 02:49:37;;;;;;;;;;;;;;;11.06;55.88;98946.53;3110052;28;19932;-65
2023/03/10 02:51:10;;;;;;;;;;;;;;;11.04;56.02;98943.19;3109891;28;19932;-65
2023/03/10 02:52:45;;;;;;;;;;;;;;;11.04;55.87;98943.19;3109857;28;20509;-65
2023/03/10 02:54:16;;;;;;;;;;;;;;;11.01;56.11;98948.56;3109769;28;19925;-65
2023/03/10 02:55:48;;;;;;;;;;;;;;;10.98;56.63;98959.19;3109709;28;19925;-64
2023/03/10 02:57:20;;;;;;;;;;;;;;;10.94;56.49;98949.84;3109966;28;19976;-65
2023/03/10 02:58:53;;;;;;;;;;;;;;;10.90;56.98;98951.81;3110098;28;19925;-64
2023/03/10 03:00:24;;;;;;;;;;;;;;;10.90;57.02;98953.59;3109888;28;19933;-65
2023/03/10 03:01:56;;;;;;;;;;;;;;;10.91;57.14;98957.84;3109635;28;19925;-65
2023/03/10 03:03:27;;;;;;;;;;;;;;;10.92;57.02;98956.94;3109641;28;19929;-65
2023/03/10 03:04:59;;;;;;;;;;;;;;;10.94;56.91;98955.06;3110192;28;19965;-65
2023/03/10 03:06:30;;;;;;;;;;;;;;;10.94;56.92;98955.06;3109825;28;19932;-64
2023/03/10 03:08:01;;;;;;;;;;;;;;;10.95;56.69;98958.53;3109679;28;19925;-64
2023/03/10 03:09:33;;;;;;;;;;;;;;;10.91;56.68;98960.47;3110126;28;19925;-64
2023/03/10 03:11:04;;;;;;;;;;;;;;;10.89;57.13;98957.13;3109976;28;19925;-64
2023/03/10 03:12:35;;;;;;;;;;;;;;;10.87;56.98;98956.38;3109523;28;19925;-64
2023/03/10 03:14:08;;;;;;;;;;;;;;;10.85;57.19;98963.44;3116640;28;19929;-64
2023/03/10 03:15:39;;;;;;;;;;;;;;;10.83;57.13;98963.53;3109784;28;19956;-65
2023/03/10 03:17:11;;;;;;;;;;;;;;;10.79;57.19;98956.00;3107186;28;20403;-65
2023/03/10 03:18:42;;;;;;;;;;;;;;;10.77;57.10;98952.66;3109815;28;20009;-65
2023/03/10 03:20:13;;;;;;;;;;;;;;;10.74;57.34;98956.28;3109431;28;19926;-65
2023/03/10 03:21:48;;;;;;;;;;;;;;;10.70;57.54;98954.75;3109510;28;19925;-65
2023/03/10 03:23:20;;;;;;;;;;;;;;;10.66;57.84;98953.28;3109607;28;19999;-65
2023/03/10 03:24:51;;;;;;;;;;;;;;;10.64;57.87;98950.75;3109462;28;19926;-65
2023/03/10 03:26:25;;;;;;;;;;;;;;;10.62;57.88;98952.63;3109653;28;19936;-65
2023/03/10 03:27:57;;;;;;;;;;;;;;;10.60;57.71;98943.22;3107251;28;20031;-65
2023/03/10 03:29:30;;;;;;;;;;;;;;;10.56;57.80;98947.78;3109674;28;20012;-66
2023/03/10 03:31:01;;;;;;;;;;;;;;;10.51;58.31;98947.22;3109373;28;20315;-65
2023/03/10 03:32:32;;;;;;;;;;;;;;;10.45;58.48;98952.78;3109470;28;19930;-66
2023/03/10 03:34:04;;;;;;;;;;;;;;;10.39;58.23;98953.13;3109281;28;19989;-65
2023/03/10 03:35:36;;;;;;;;;;;;;;;10.35;58.34;98954.22;3109184;28;20355;-65
2023/03/10 03:37:08;;;;;;;;;;;;;;;10.32;58.71;98960.44;3109336;28;19930;-65
2023/03/10 03:38:39;;;;;;;;;;;;;;;10.29;58.82;98960.63;3109406;28;20003;-65
2023/03/10 03:40:11;;;;;;;;;;;;;;;10.26;58.85;98960.75;3109326;28;19945;-65
2023/03/10 03:41:43;;;;;;;;;;;;;;;10.21;59.23;98958.44;3108934;28;20470;-65
2023/03/10 03:43:14;;;;;;;;;;;;;;;10.20;59.31;98961.97;3109112;28;19948;-65
2023/03/10 03:44:47;;;;;;;;;;;;;;;10.19;59.33;98951.63;3109610;28;19949;-65
2023/03/10 03:46:19;;;;;;;;;;;;;;;10.19;59.32;98949.88;3104926;28;19925;-65
2023/03/10 03:47:51;;;;;;;;;;;;;;;10.18;59.47;98943.00;3109266;28;19944;-65
2023/03/10 03:49:22;;;;;;;;;;;;;;;10.16;59.48;98950.03;3109448;28;19984;-65
2023/03/10 03:50:53;;;;;;;;;;;;;;;10.15;59.31;98944.94;3109144;28;19936;-65
2023/03/10 03:52:24;;;;;;;;;;;;;;;10.12;59.46;98943.34;3109303;28;20275;-65
2023/03/10 03:53:55;;;;;;;;;;;;;;;10.10;59.47;98947.78;3108844;28;19926;-64
2023/03/10 03:55:27;;;;;;;;;;;;;;;10.03;59.55;98941.28;3108973;28;19955;-64
2023/03/10 03:56:59;;;;;;;;;;;;;;;10.09;59.84;98955.69;3109574;28;19945;-64
2023/03/10 03:58:31;;;;;;;;;;;;;;;10.07;59.68;98947.13;3109123;28;19932;-65
2023/03/10 04:00:06;;;;;;;;;;;;;;;10.04;59.75;98953.34;3109075;28;19936;-64
2023/03/10 04:01:37;;;;;;;;;;;;;;;10.02;59.83;98952.59;3109294;28;19929;-64
2023/03/10 04:03:09;;;;;;;;;;;;;;;10.01;59.75;98945.72;3109557;28;19983;-64
2023/03/10 04:04:40;;;;;;;;;;;;;;;9.99;59.72;98942.34;3108831;28;19995;-64
2023/03/10 04:06:12;;;;;;;;;;;;;;;9.96;60.06;98952.94;3109084;28;19972;-64
2023/03/10 04:07:44;;;;;;;;;;;;;;;9.95;59.77;98940.88;3109090;28;20326;-65
2023/03/10 04:09:16;;;;;;;;;;;;;;;9.94;59.86;98942.63;3109109;28;19932;-65
2023/03/10 04:10:50;;;;;;;;;;;;;;;9.95;59.98;98935.66;3109227;28;19925;-65
2023/03/10 04:12:21;;;;;;;;;;;;;;;9.90;60.14;98938.50;3108990;28;19932;-65
2023/03/10 04:13:53;;;;;;;;;;;;;;;9.93;59.85;98937.50;3114169;28;19929;-64
2023/03/10 04:15:26;;;;;;;;;;;;;;;9.94;59.94;98939.19;3109785;28;19979;-65
2023/03/10 04:16:58;;;;;;;;;;;;;;;9.93;60.28;98935.72;3109067;28;19952;-65
2023/03/10 04:18:29;;;;;;;;;;;;;;;9.92;60.26;98941.03;3108785;28;20374;-65
2023/03/10 04:20:01;;;;;;;;;;;;;;;9.90;60.35;98942.88;3109016;28;19925;-65
2023/03/10 04:21:32;;;;;;;;;;;;;;;9.89;59.95;98954.22;3108367;28;19929;-65
2023/03/10 04:23:04;;;;;;;;;;;;;;;9.87;60.11;98941.28;3109072;28;20381;-65
2023/03/10 04:24:37;;;;;;;;;;;;;;;9.87;59.99;98943.88;3108924;28;19948;-65
2023/03/10 04:26:09;;;;;;;;;;;;;;;9.86;60.13;98950.00;3109013;28;19926;-64
2023/03/10 04:27:41;;;;;;;;;;;;;;;9.86;60.07;98950.00;3106716;28;19936;-64
2023/03/10 04:29:12;;;;;;;;;;;;;;;9.85;60.35;98945.75;3108717;28;19929;-65
2023/03/10 04:30:47;;;;;;;;;;;;;;;9.84;60.57;98951.03;3109020;28;19925;-64
2023/03/10 04:32:18;;;;;;;;;;;;;;;9.80;60.71;98953.78;3108515;28;19925;-64
2023/03/10 04:33:50;;;;;;;;;;;;;;;9.78;60.71;98947.81;3096448;28;20395;-64
2023/03/10 04:35:22;;;;;;;;;;;;;;;9.74;61.02;98948.94;3107896;28;20697;-64
2023/03/10 04:36:53;;;;;;;;;;;;;;;9.74;60.90;98950.69;3108724;28;20338;-64
2023/03/10 04:38:25;;;;;;;;;;;;;;;9.73;61.22;98952.47;3108550;28;19932;-66
2023/03/10 04:39:57;;;;;;;;;;;;;;;9.75;61.18;98954.97;3108809;28;19925;-65
2023/03/10 04:41:28;;;;;;;;;;;;;;;9.76;61.12;98954.03;3108722;28;20398;-65
2023/03/10 04:43:00;;;;;;;;;;;;;;;9.77;60.96;98964.38;3108791;28;20259;-65
2023/03/10 04:44:30;;;;;;;;;;;;;;;9.77;61.16;98953.97;3103979;28;20350;-64
2023/03/10 04:46:04;;;;;;;;;;;;;;;9.78;61.06;98954.81;3108625;28;19929;-64
2023/03/10 04:47:35;;;;;;;;;;;;;;;9.78;61.07;98947.00;3108361;28;19929;-65
2023/03/10 04:49:07;;;;;;;;;;;;;;;9.77;61.25;98958.34;3108935;28;19929;-65
2023/03/10 04:50:38;;;;;;;;;;;;;;;9.76;61.05;98960.09;3108266;28;20259;-64
2023/03/10 04:52:09;;;;;;;;;;;;;;;9.76;61.10;98964.44;3108758;28;19934;-64
2023/03/10 04:53:41;;;;;;;;;;;;;;;9.75;61.15;98950.59;3108642;28;19992;-64
2023/03/10 04:55:13;;;;;;;;;;;;;;;9.75;61.16;98950.59;3108533;28;19929;-64
2023/03/10 04:56:43;;;;;;;;;;;;;;;9.76;61.30;98948.84;3108689;28;19925;-63
2023/03/10 04:58:15;;;;;;;;;;;;;;;9.78;61.28;98950.44;3108595;28;19951;-65
2023/03/10 04:59:46;;;;;;;;;;;;;;;9.79;60.91;98946.09;3108332;28;19933;-64
2023/03/10 05:01:19;;;;;;;;;;;;;;;9.79;61.15;98944.31;3108212;28;19929;-65
2023/03/10 05:02:51;;;;;;;;;;;;;;;9.79;61.46;98941.72;3108729;28;19925;-64
2023/03/10 05:04:23;;;;;;;;;;;;;;;9.79;61.39;98938.28;3108259;28;19937;-64
2023/03/10 05:05:54;;;;;;;;;;;;;;;9.80;61.18;98937.34;3108278;28;19925;-64
2023/03/10 05:07:26;;;;;;;;;;;;;;;9.78;61.33;98944.41;3108366;28;19929;-64
2023/03/10 05:08:59;;;;;;;;;;;;;;;9.79;61.31;98941.72;3108420;28;20327;-64
2023/03/10 05:10:31;;;;;;;;;;;;;;;9.80;61.39;98943.41;3108173;28;19925;-64
2023/03/10 05:12:03;;;;;;;;;;;;;;;9.81;61.28;98944.22;3108176;28;19936;-64
2023/03/10 05:13:33;;;;;;;;;;;;;;;9.82;61.24;98940.72;3110528;28;19936;-63
2023/03/10 05:15:06;;;;;;;;;;;;;;;9.84;61.79;98945.81;3116076;28;19932;-66
2023/03/10 05:16:39;;;;;;;;;;;;;;;9.86;61.63;98947.41;3108851;28;20021;-66
2023/03/10 05:18:11;;;;;;;;;;;;;;;9.87;61.75;98945.66;3108090;28;20279;-66
2023/03/10 05:19:42;;;;;;;;;;;;;;;9.88;61.84;98939.50;3108469;28;19965;-67
2023/03/10 05:21:13;;;;;;;;;;;;;;;9.91;61.83;98942.81;3108185;28;19934;-66
2023/03/10 05:22:45;;;;;;;;;;;;;;;9.94;61.86;98947.84;3108540;28;19983;-66
2023/03/10 05:24:16;;;;;;;;;;;;;;;9.94;61.76;98945.22;3108161;28;20408;-66
2023/03/10 05:25:48;;;;;;;;;;;;;;;9.96;61.77;98942.53;3108026;28;20007;-71
2023/03/10 05:27:20;;;;;;;;;;;;;;;9.97;61.70;98946.81;3107026;28;19925;-70
2023/03/10 05:28:52;;;;;;;;;;;;;;;9.98;61.85;98948.50;3107992;28;19925;-74
2023/03/10 05:30:23;;;;;;;;;;;;;;;10.01;61.83;98948.31;3108018;28;19925;-69
2023/03/10 05:31:56;;;;;;;;;;;;;;;10.02;61.91;98952.59;3107826;28;19926;-70
2023/03/10 05:33:27;;;;;;;;;;;;;;;10.06;61.84;98953.25;3107900;28;19929;-71
2023/03/10 05:34:59;;;;;;;;;;;;;;;10.06;61.59;98948.91;3108502;28;19926;-69
2023/03/10 05:36:30;;;;;;;;;;;;;;;10.09;61.75;98948.72;3107222;28;19948;-68
2023/03/10 05:38:02;;;;;;;;;;;;;;;10.10;61.57;98947.78;3107955;28;19925;-69
2023/03/10 05:39:33;;;;;;;;;;;;;;;10.12;61.59;98943.34;3111528;28;19933;-70
2023/03/10 05:41:06;;;;;;;;;;;;;;;10.11;61.69;98948.63;3112331;28;19995;-69
2023/03/10 05:42:38;;;;;;;;;;;;;;;10.12;61.77;98945.94;3111845;28;20485;-69
2023/03/10 05:44:10;;;;;;;;;;;;;;;10.16;61.67;98946.59;3111958;28;20311;-71
2023/03/10 05:45:40;;;;;;;;;;;;;;;10.18;61.58;98947.38;3111922;28;19929;-69
2023/03/10 05:47:17;;;;;;;;;;;;;;;10.20;61.40;98948.97;3111909;28;19933;-68
2023/03/10 05:48:49;;;;;;;;;;;;;;;10.25;61.33;98940.88;3111758;28;20627;-74
2023/03/10 05:50:21;;;;;;;;;;;;;;;10.31;61.18;98944.94;3111627;28;19929;-69
2023/03/10 05:51:52;;;;;;;;;;;;;;;10.34;61.31;98937.78;3112113;28;19980;-69
2023/03/10 05:53:24;;;;;;;;;;;;;;;10.38;61.42;98938.44;3111644;28;20457;-66
2023/03/10 05:54:56;;;;;;;;;;;;;;;10.41;61.49;98940.84;3111940;28;19926;-68
2023/03/10 05:56:27;;;;;;;;;;;;;;;10.44;61.33;98933.72;3111601;28;19933;-69
2023/03/10 05:57:58;;;;;;;;;;;;;;;10.47;61.49;98932.72;3111883;28;20017;-70
2023/03/10 05:59:29;;;;;;;;;;;;;;;10.51;61.37;98934.19;3111789;28;19941;-69
2023/03/10 06:01:01;;;;;;;;;;;;;;;10.54;61.16;98928.81;3111641;28;19980;-67
2023/03/10 06:02:34;;;;;;;;;;;;;;;10.59;61.08;98929.38;3111563;28;19929;-68
2023/03/10 06:04:05;;;;;;;;;;;;;;;10.64;60.95;98926.50;3107160;28;20373;-66
2023/03/10 06:05:37;;;;;;;;;;;;;;;10.67;61.14;98934.94;3110788;28;19983;-66
2023/03/10 06:07:09;;;;;;;;;;;;;;;10.70;61.04;98928.72;3111505;28;19929;-69
2023/03/10 06:08:41;;;;;;;;;;;;;;;10.73;61.03;98927.72;3111448;28;20351;-67
2023/03/10 06:10:13;;;;;;;;;;;;;;;10.75;61.02;98928.47;3111742;28;19979;-67
2023/03/10 06:11:45;;;;;;;;;;;;;;;10.77;60.92;98927.44;3111198;28;19961;-67
2023/03/10 06:13:18;;;;;;;;;;;;;;;10.78;60.75;98923.06;3111985;28;19996;-67
2023/03/10 06:14:50;;;;;;;;;;;;;;;10.78;61.07;98923.06;3114252;28;19961;-71
2023/03/10 06:16:22;;;;;;;;;;;;;;;10.75;61.19;98918.06;3111576;28;19931;-71
2023/03/10 06:17:54;;;;;;;;;;;;;;;10.74;61.13;98914.63;3111381;28;19952;-70
2023/03/10 06:19:26;;;;;;;;;;;;;;;10.69;61.09;98908.84;3111711;28;19926;-68
2023/03/10 06:20:58;;;;;;;;;;;;;;;10.78;61.29;98915.25;3111471;28;20477;-70
2023/03/10 06:22:30;;;;;;;;;;;;;;;10.81;61.40;98913.31;3111967;28;19925;-69
2023/03/10 06:24:02;;;;;;;;;;;;;;;10.86;61.35;98913.03;3111833;28;19925;-70
2023/03/10 06:25:34;;;;;;;;;;;;;;;10.92;61.25;98912.66;3111841;28;20318;-69
2023/03/10 06:27:06;;;;;;;;;;;;;;;11.00;61.24;98914.78;3111868;28;19925;-69
2023/03/10 06:28:38;;;;;;;;;;;;;;;11.06;61.20;98920.47;3111532;28;19937;-71
2023/03/10 06:30:11;;;;;;;;;;;;;;;11.15;60.94;98916.44;3111293;28;19997;-70
2023/03/10 06:31:42;;;;;;;;;;;;;;;11.24;60.87;98920.25;3111786;28;19930;-69
2023/03/10 06:33:15;;;;;;;;;;;;;;;11.34;60.75;98921.38;3112220;28;20545;-69
2023/03/10 06:34:47;;;;;;;;;;;;;;;11.43;60.79;98912.97;3111877;28;20032;-70
2023/03/10 06:36:19;;;;;;;;;;;;;;;11.52;60.63;98914.16;3111592;28;19929;-68
2023/03/10 06:37:50;;;;;;;;;;;;;;;11.61;60.30;98914.41;3111609;28;19936;-68
2023/03/10 06:39:22;;;;;;;;;;;;;;;11.70;60.50;98912.16;3111816;28;19941;-67
2023/03/10 06:40:54;;;;;;;;;;;;;;;11.76;60.37;98911.78;3112024;28;19930;-71
2023/03/10 06:42:25;;;;;;;;;;;;;;;11.83;60.20;98919.13;3111831;28;19952;-73
2023/03/10 06:43:57;;;;;;;;;;;;;;;11.91;60.26;98913.41;3111701;28;19933;-69
2023/03/10 06:45:28;;;;;;;;;;;;;;;11.98;60.13;98914.72;3111796;28;19932;-70
2023/03/10 06:47:00;;;;;;;;;;;;;;;12.09;60.14;98920.97;3111971;28;19925;-69
2023/03/10 06:48:33;;;;;;;;;;;;;;;12.23;60.17;98920.91;3111614;28;19972;-66
2023/03/10 06:50:05;;;;;;;;;;;;;;;12.43;59.76;98925.66;3110984;28;19926;-70
2023/03/10 06:51:37;;;;;;;;;;;;;;;12.62;59.88;98917.41;3109492;28;20028;-69
2023/03/10 06:53:09;;;;;;;;;;;;;;;12.80;59.61;98915.31;3109266;28;19936;-72
2023/03/10 06:54:40;;;;;;;;;;;;;;;12.94;59.22;98912.59;3109474;28;19980;-72
2023/03/10 06:56:13;;;;;;;;;;;;;;;13.11;59.33;98908.00;3109936;28;19926;-74
2023/03/10 06:57:44;;;;;;;;;;;;;;;13.28;59.12;98906.81;3109848;28;19936;-72
2023/03/10 06:59:16;;;;;;;;;;;;;;;13.47;58.64;98901.16;3109897;28;19929;-73
2023/03/10 07:00:48;;;;;;;;;;;;;;;13.67;58.31;98907.56;3110073;28;20283;-73
2023/03/10 07:02:19;;;;;;;;;;;;;;;13.86;58.02;98906.09;3109761;28;20386;-75
2023/03/10 07:03:52;;;;;;;;;;;;;;;14.03;57.93;98898.81;3109836;28;20359;-75
2023/03/10 07:05:26;;;;;;;;;;;;;;;14.19;57.54;98898.50;3108554;28;19975;-76
2023/03/10 07:06:57;;;;;;;;;;;;;;;14.29;56.76;98897.72;3109083;28;20013;-76
2023/03/10 07:08:29;;;;;;;;;;;;;;;14.32;56.51;98894.88;3109927;28;19926;-82
2023/03/10 07:10:01;;;;;;;;;;;;;;;14.37;56.32;98894.50;3110130;28;19951;-78
2023/03/10 07:11:32;;;;;;;;;;;;;;;14.40;56.32;98894.28;3109147;28;19929;-77
2023/03/10 07:13:04;;;;;;;;;;;;;;;14.42;56.19;98889.75;3110518;28;19932;-77
2023/03/10 07:14:36;;;;;;;;;;;;;;;14.57;56.05;98885.16;3112596;28;19929;-78
2023/03/10 07:16:08;;;;;;;;;;;;;;;14.74;55.72;98895.19;3108688;28;19929;-79
2023/03/10 07:17:39;;;;;;;;;;;;;;;14.90;55.43;98889.59;3104105;28;19929;-79
2023/03/10 07:19:12;;;;;;;;;;;;;;;14.98;54.81;98886.41;3109693;28;19933;-78
2023/03/10 07:20:44;;;;;;;;;;;;;;;15.12;54.66;98894.03;3109525;28;19983;-78
2023/03/10 07:22:16;;;;;;;;;;;;;;;15.25;54.08;98889.47;3109174;28;20016;-78
2023/03/10 07:23:47;;;;;;;;;;;;;;;15.36;53.49;98890.44;3109402;28;20468;-80
2023/03/10 07:25:19;;;;;;;;;;;;;;;15.44;53.42;98894.09;3109650;28;19925;-79
2023/03/10 07:26:51;;;;;;;;;;;;;;;15.59;53.42;98902.53;3109589;28;19932;-78
2023/03/10 07:28:22;;;;;;;;;;;;;;;15.69;53.05;98902.66;3109855;28;19936;-79
2023/03/10 07:29:54;;;;;;;;;;;;;;;15.77;52.55;98900.25;3109777;28;20007;-80
2023/03/10 07:31:26;;;;;;;;;;;;;;;15.83;51.99;98905.00;3109458;28;20151;-79
2023/03/10 07:32:57;;;;;;;;;;;;;;;15.90;51.70;98906.16;3109626;28;19929;-80
2023/03/10 07:34:30;;;;;;;;;;;;;;;15.97;51.51;98903.88;3109136;28;19925;-79
2023/03/10 07:36:04;;;;;;;;;;;;;;;16.05;51.49;98898.81;3109221;28;19926;-78
2023/03/10 07:37:37;;;;;;;;;;;;;;;16.14;51.17;98897.25;3109514;28;19975;-78
2023/03/10 07:39:09;;;;;;;;;;;;;;;16.14;50.90;98900.69;3109444;28;20103;-75
2023/03/10 07:40:41;;;;;;;;;;;;;;;16.20;50.66;98895.91;3109352;28;19926;-75
2023/03/10 07:42:12;;;;;;;;;;;;;;;16.23;50.27;98908.78;3109460;28;20006;-78
2023/03/10 07:43:44;;;;;;;;;;;;;;;16.21;50.11;98901.03;3109487;28;20024;-79
2023/03/10 07:45:15;;;;;;;;;;;;;;;16.22;50.22;98905.31;3109310;28;19926;-79
2023/03/10 07:46:47;;;;;;;;;;;;;;;16.20;50.44;98901.16;3109777;28;20140;-77
2023/03/10 07:48:18;;;;;;;;;;;;;;;16.22;50.17;98904.50;3109226;28;19926;-76
2023/03/10 07:49:51;;;;;;;;;;;;;;;16.23;50.29;98906.16;3109089;28;20308;-76
2023/03/10 07:51:22;;;;;;;;;;;;;;;16.24;50.31;98900.78;3109291;28;19995;-81
2023/03/10 07:52:55;;;;;;;;;;;;;;;16.26;50.07;98906.72;3109623;28;20391;-78
2023/03/10 07:54:26;;;;;;;;;;;;;;;16.24;49.96;98903.41;3109344;28;19930;-77
2023/03/10 07:55:58;;;;;;;;;;;;;;;16.19;49.88;98899.50;3108898;28;19941;-79
2023/03/10 07:57:29;;;;;;;;;;;;;;;16.12;49.99;98899.19;3109255;28;20016;-79
2023/03/10 07:59:01;;;;;;;;;;;;;;;16.06;50.07;98911.03;3109639;28;19926;-79
2023/03/10 08:00:32;;;;;;;;;;;;;;;15.98;49.84;98902.94;3109381;28;19929;-77